Time;durP1;ratioP1;P1;durP2;ratioP2;P2;SDS_P1;SDS_P2;PMS_P1;PMS_P2;Temp;Humidity;BMP_temperature;BMP_pressure;BME280_temperature;BME280_humidity;BME280_pressure;Samples;Min_cycle;Max_cycle;Signal;HPM_P1;HPM_P2
2021/03/16 00:00:07;;;;;;;26.20;5.10;;;6.20;88.00;;;;;;5033542;28;20399;-71
2021/03/16 00:02:32;;;;;;;25.00;5.22;;;6.20;88.10;;;;;;5014335;28;20493;-71
2021/03/16 00:04:58;;;;;;;29.52;5.57;;;6.20;88.70;;;;;;5013568;28;20409;-71
2021/03/16 00:07:24;;;;;;;25.33;5.75;;;6.20;89.40;;;;;;5013746;28;20455;-70
2021/03/16 00:09:49;;;;;;;32.87;6.30;;;6.20;89.90;;;;;;5015775;28;20539;-72
2021/03/16 00:12:15;;;;;;;28.23;5.80;;;6.20;90.10;;;;;;5011229;28;20376;-71
2021/03/16 00:14:41;;;;;;;27.67;5.47;;;6.20;90.40;;;;;;5010693;28;20878;-72
2021/03/16 00:17:06;;;;;;;23.90;4.80;;;6.20;89.50;;;;;;5011460;28;20399;-71
2021/03/16 00:19:32;;;;;;;28.88;5.45;;;6.20;88.80;;;;;;4993209;28;20420;-71
2021/03/16 00:21:57;;;;;;;27.83;5.63;;;6.20;88.90;;;;;;5011550;28;20395;-71
2021/03/16 00:24:24;;;;;;;24.53;5.23;;;6.20;89.80;;;;;;5011576;28;20385;-71
2021/03/16 00:26:49;;;;;;;35.35;6.10;;;6.20;90.40;;;;;;5011121;28;20405;-72
2021/03/16 00:29:15;;;;;;;27.60;5.23;;;6.20;89.80;;;;;;5011726;28;20392;-71
2021/03/16 00:31:40;;;;;;;28.93;5.40;;;6.20;88.20;;;;;;5031627;28;20418;-72
2021/03/16 00:34:06;;;;;;;24.13;6.00;;;6.20;88.40;;;;;;5014154;28;20489;-71
2021/03/16 00:36:33;;;;;;;22.98;5.60;;;6.20;89.50;;;;;;5031737;28;20379;-71
2021/03/16 00:38:58;;;;;;;32.97;6.65;;;6.20;88.20;;;;;;5019549;28;20752;-72
2021/03/16 00:41:24;;;;;;;37.10;6.00;;;6.20;89.30;;;;;;5012201;28;20404;-72
2021/03/16 00:43:51;;;;;;;26.73;5.32;;;6.20;89.10;;;;;;5013777;28;20839;-72
2021/03/16 00:46:17;;;;;;;31.20;5.78;;;6.20;89.00;;;;;;5031819;28;20905;-72
2021/03/16 00:48:42;;;;;;;32.80;5.67;;;6.20;89.20;;;;;;5031702;28;20390;-71
2021/03/16 00:51:08;;;;;;;26.75;4.85;;;6.20;88.70;;;;;;5032016;28;20375;-71
2021/03/16 00:53:33;;;;;;;27.65;4.70;;;6.30;88.40;;;;;;5031808;28;20402;-72
2021/03/16 00:55:59;;;;;;;31.35;5.03;;;6.20;88.00;;;;;;5015440;28;20401;-72
2021/03/16 00:58:28;;;;;;;24.75;4.47;;;6.30;87.90;;;;;;5010506;28;20450;-72
2021/03/16 01:00:55;;;;;;;32.55;5.85;;;6.20;87.00;;;;;;5010239;28;20894;-71
2021/03/16 01:03:21;;;;;;;29.77;5.00;;;6.20;88.40;;;;;;5030270;28;20387;-71
2021/03/16 01:05:48;;;;;;;28.20;4.63;;;6.20;87.20;;;;;;5029968;28;20461;-72
2021/03/16 01:08:18;;;;;;;16.00;4.60;;;6.20;86.80;;;;;;5030164;28;20437;-72
2021/03/16 01:10:45;;;;;;;27.73;5.93;;;6.20;86.30;;;;;;5030080;28;20800;-70
2021/03/16 01:13:11;;;;;;;22.48;4.47;;;6.20;85.90;;;;;;5016865;28;20822;-71
2021/03/16 01:15:37;;;;;;;24.25;5.00;;;6.20;85.40;;;;;;5010274;28;20464;-71
2021/03/16 01:18:03;;;;;;;25.73;5.22;;;6.20;85.30;;;;;;4995055;28;20493;-73
2021/03/16 01:20:29;;;;;;;19.52;4.22;;;6.20;84.90;;;;;;5013385;28;20423;-71
2021/03/16 01:22:55;;;;;;;20.57;4.70;;;6.20;84.90;;;;;;5013503;28;20389;-71
2021/03/16 01:25:20;;;;;;;18.92;3.80;;;6.20;84.10;;;;;;5013345;28;20840;-71
2021/03/16 01:27:46;;;;;;;27.20;4.20;;;6.20;83.40;;;;;;5013371;28;20408;-71
2021/03/16 01:30:13;;;;;;;24.67;4.70;;;6.20;82.70;;;;;;5013046;28;20403;-72
2021/03/16 01:32:39;;;;;;;20.60;4.35;;;6.20;82.70;;;;;;5013153;28;20396;-71
2021/03/16 01:35:12;;;;;;;28.67;4.80;;;6.30;78.30;;;;;;5013394;28;20377;-71
2021/03/16 01:37:38;;;;;;;31.35;4.30;;;6.40;78.60;;;;;;5013112;28;20380;-71
2021/03/16 01:40:12;;;;;;;25.15;4.35;;;6.40;77.90;;;;;;5013191;28;20988;-71
2021/03/16 01:42:37;;;;;;;24.40;5.65;;;6.40;82.20;;;;;;5013447;28;20945;-71
2021/03/16 01:45:16;;;;;;;34.17;6.20;;;6.30;82.10;;;;;;5017185;28;20402;-71
2021/03/16 01:47:50;;;;;;;20.45;4.05;;;6.40;83.90;;;;;;5014912;28;20928;-70
2021/03/16 01:50:18;;;;;;;29.88;4.50;;;6.30;82.70;;;;;;5032819;28;20388;-73
2021/03/16 01:52:45;;;;;;;27.48;5.00;;;6.30;86.80;;;;;;5032909;28;20394;-72
2021/03/16 01:55:12;;;;;;;24.52;4.97;;;6.30;87.50;;;;;;5032786;28;20483;-72
2021/03/16 01:57:41;;;;;;;22.15;4.07;;;6.20;88.10;;;;;;5032650;28;20406;-71
2021/03/16 02:00:09;;;;;;;16.73;3.95;;;6.10;86.20;;;;;;5023421;28;20450;-72
2021/03/16 02:02:35;;;;;;;26.67;4.63;;;6.10;85.90;;;;;;5013218;28;20472;-70
2021/03/16 02:05:00;;;;;;;30.83;4.60;;;6.20;87.50;;;;;;5013154;28;20475;-71
2021/03/16 02:07:38;;;;;;;24.33;3.72;;;6.20;86.10;;;;;;5013141;28;20457;-71
2021/03/16 02:10:25;;;;;;;23.65;5.00;;;6.10;83.30;;;;;;5012961;28;20384;-72
2021/03/16 02:13:09;;;;;;;21.25;3.88;;;6.20;83.80;;;;;;5002917;28;20379;-72
2021/03/16 02:15:38;;;;;;;23.40;3.70;;;6.10;81.30;;;;;;5011551;28;20442;-71
2021/03/16 02:18:09;;;;;;;22.15;3.03;;;6.10;81.60;;;;;;5015302;28;20411;-71
2021/03/16 02:20:42;;;;;;;24.25;4.22;;;6.20;79.80;;;;;;5014891;28;20477;-71
2021/03/16 02:23:10;;;;;;;22.52;3.70;;;6.20;79.20;;;;;;5015156;28;20755;-72
2021/03/16 02:25:57;;;;;;;17.95;3.20;;;6.10;77.70;;;;;;5014513;28;20396;-73
2021/03/16 02:29:00;;;;;;;16.23;3.65;;;6.10;77.60;;;;;;5013895;28;20484;-72
2021/03/16 02:31:27;;;;;;;16.02;3.67;;;6.10;75.20;;;;;;5014687;28;20385;-72
2021/03/16 02:33:55;;;;;;;22.65;3.88;;;6.10;75.40;;;;;;5014785;28;20400;-71
2021/03/16 02:36:21;;;;;;;13.68;3.05;;;6.10;74.80;;;;;;5016395;28;20479;-71
2021/03/16 02:38:50;;;;;;;27.17;3.67;;;6.10;73.30;;;;;;5015635;28;20393;-70
2021/03/16 02:41:18;;;;;;;17.70;4.00;;;6.10;71.80;;;;;;5015775;28;20389;-71
2021/03/16 02:43:44;;;;;;;18.85;4.35;;;6.20;71.40;;;;;;5018692;28;20420;-72
2021/03/16 02:46:10;;;;;;;22.77;3.25;;;6.20;69.60;;;;;;5014998;28;20763;-71
2021/03/16 02:48:37;;;;;;;17.77;3.72;;;6.20;68.20;;;;;;5013648;28;20432;-71
2021/03/16 02:51:04;;;;;;;18.17;3.80;;;6.20;66.50;;;;;;5012668;28;20391;-72
2021/03/16 02:53:32;;;;;;;15.18;2.60;;;6.20;66.50;;;;;;5011908;28;20443;-72
2021/03/16 02:55:59;;;;;;;20.15;4.03;;;6.20;66.10;;;;;;5011934;28;20411;-71
2021/03/16 02:58:25;;;;;;;15.87;3.27;;;6.20;66.50;;;;;;5012067;28;20404;-71
2021/03/16 03:00:51;;;;;;;15.27;3.77;;;6.20;65.00;;;;;;5011566;28;20391;-70
2021/03/16 03:03:19;;;;;;;19.58;3.50;;;6.20;64.80;;;;;;5011749;28;20385;-71
2021/03/16 03:05:46;;;;;;;17.88;3.47;;;6.30;65.00;;;;;;5011637;28;20879;-72
2021/03/16 03:08:14;;;;;;;16.23;3.25;;;6.30;61.90;;;;;;5011626;28;20858;-71
2021/03/16 03:10:39;;;;;;;12.52;3.00;;;6.30;61.60;;;;;;5011359;28;20388;-71
2021/03/16 03:13:05;;;;;;;22.03;4.20;;;6.40;60.40;;;;;;5013823;28;20415;-71
2021/03/16 03:15:31;;;;;;;12.50;3.58;;;6.40;61.20;;;;;;5011775;28;20380;-72
2021/03/16 03:17:57;;;;;;;12.38;3.17;;;6.40;58.90;;;;;;5011637;28;20396;-70
2021/03/16 03:20:23;;;;;;;13.88;3.10;;;6.40;56.40;;;;;;5011505;28;20763;-71
2021/03/16 03:22:59;;;;;;;6.85;2.50;;;6.40;56.20;;;;;;5011153;28;20388;-71
2021/03/16 03:25:28;;;;;;;14.57;3.40;;;6.40;56.50;;;;;;5011274;28;20858;-71
2021/03/16 03:28:00;;;;;;;15.10;3.17;;;6.40;57.80;;;;;;5028554;28;20473;-70
2021/03/16 03:30:27;;;;;;;15.85;2.53;;;6.40;58.10;;;;;;5023200;28;20404;-71
2021/03/16 03:32:59;;;;;;;15.93;3.30;;;6.40;60.00;;;;;;4996352;28;20459;-71
2021/03/16 03:35:29;;;;;;;19.60;2.90;;;6.40;61.70;;;;;;5013976;28;20428;-72
2021/03/16 03:37:56;;;;;;;23.58;4.07;;;6.30;64.90;;;;;;5014993;28;20396;-72
2021/03/16 03:40:25;;;;;;;22.17;2.70;;;6.30;67.50;;;;;;5016241;28;20392;-71
2021/03/16 03:42:56;;;;;;;18.10;3.45;;;6.30;70.20;;;;;;5016883;28;20420;-71
2021/03/16 03:45:24;;;;;;;22.38;3.33;;;6.30;72.00;;;;;;5034887;28;20419;-72
2021/03/16 03:47:53;;;;;;;16.30;3.47;;;6.30;72.80;;;;;;5036416;28;20426;-72
2021/03/16 03:50:19;;;;;;;32.75;4.47;;;6.30;72.90;;;;;;5035645;28;20387;-71
2021/03/16 03:52:46;;;;;;;28.13;3.40;;;6.30;74.40;;;;;;5035939;28;20379;-71
2021/03/16 03:55:13;;;;;;;26.58;3.80;;;6.30;75.10;;;;;;5030772;28;20459;-71
2021/03/16 03:57:41;;;;;;;20.88;4.00;;;6.20;74.70;;;;;;5015152;28;20494;-72
2021/03/16 04:00:11;;;;;;;19.30;4.00;;;6.20;76.10;;;;;;5013821;28;20385;-71
2021/03/16 04:02:37;;;;;;;20.05;3.50;;;6.20;76.50;;;;;;5012599;28;20392;-72
2021/03/16 04:05:04;;;;;;;22.63;4.13;;;6.30;76.20;;;;;;5010740;28;20473;-72
2021/03/16 04:07:33;;;;;;;25.63;3.28;;;6.30;75.20;;;;;;5010477;28;20412;-71
2021/03/16 04:09:58;;;;;;;14.75;3.60;;;6.20;75.50;;;;;;5018313;28;20391;-71
2021/03/16 04:12:24;;;;;;;18.77;3.60;;;6.20;75.20;;;;;;5024192;28;20399;-71
2021/03/16 04:14:50;;;;;;;21.23;3.50;;;6.20;74.70;;;;;;5011150;28;20514;-71
2021/03/16 04:17:16;;;;;;;17.10;3.20;;;6.20;74.90;;;;;;5011608;28;20412;-72
2021/03/16 04:19:42;;;;;;;11.75;4.30;;;6.20;74.70;;;;;;5011262;28;20385;-72
2021/03/16 04:22:08;;;;;;;16.13;2.83;;;6.20;73.80;;;;;;5010804;28;20463;-72
2021/03/16 04:24:34;;;;;;;16.48;3.22;;;6.20;71.70;;;;;;5019052;28;20402;-71
2021/03/16 04:27:00;;;;;;;19.45;3.35;;;6.20;72.10;;;;;;5030236;28;20411;-71
2021/03/16 04:29:25;;;;;;;16.63;3.05;;;6.20;73.00;;;;;;5029689;28;20387;-71
2021/03/16 04:31:51;;;;;;;16.90;3.50;;;6.20;71.10;;;;;;5012439;28;20734;-71
2021/03/16 04:34:16;;;;;;;17.37;3.47;;;6.20;71.90;;;;;;5030003;28;20422;-71
2021/03/16 04:36:42;;;;;;;21.07;3.17;;;6.20;69.90;;;;;;5030056;28;20865;-71
2021/03/16 04:39:07;;;;;;;17.73;3.40;;;6.20;71.00;;;;;;5019619;28;20416;-72
2021/03/16 04:41:33;;;;;;;16.47;3.00;;;6.40;79.70;;;;;;5010496;28;20392;-71
2021/03/16 04:43:58;;;;;;;16.80;3.87;;;6.40;67.10;;;;;;5010287;28;20407;-72
2021/03/16 04:46:24;;;;;;;12.50;3.00;;;6.30;68.10;;;;;;5010454;28;20456;-71
2021/03/16 04:48:50;;;;;;;18.35;3.28;;;6.30;68.50;;;;;;5029792;28;20383;-71
2021/03/16 04:51:15;;;;;;;14.73;3.42;;;6.20;69.50;;;;;;5030020;28;20776;-72
2021/03/16 04:53:41;;;;;;;19.10;3.13;;;6.20;69.10;;;;;;5022406;28;20393;-72
2021/03/16 04:56:07;;;;;;;14.95;3.08;;;6.30;69.50;;;;;;5013897;28;20879;-71
2021/03/16 04:58:32;;;;;;;17.85;3.28;;;6.30;69.60;;;;;;5013642;28;20381;-71
2021/03/16 05:00:58;;;;;;;20.50;3.72;;;6.30;70.40;;;;;;5013541;28;20416;-72
2021/03/16 05:03:23;;;;;;;22.02;3.40;;;6.30;70.80;;;;;;5013326;28;20420;-71
2021/03/16 05:05:49;;;;;;;17.00;3.33;;;6.30;68.60;;;;;;5013800;28;20411;-72
2021/03/16 05:08:14;;;;;;;13.70;3.60;;;6.20;70.30;;;;;;5013869;28;20937;-72
2021/03/16 05:10:40;;;;;;;17.10;2.93;;;6.30;69.70;;;;;;5013809;28;20938;-72
2021/03/16 05:13:05;;;;;;;18.27;3.60;;;6.30;69.30;;;;;;5013922;28;20459;-71
2021/03/16 05:15:31;;;;;;;13.53;3.10;;;6.30;70.30;;;;;;5016621;28;20904;-71
2021/03/16 05:17:56;;;;;;;18.60;3.80;;;6.30;68.50;;;;;;5034168;28;20395;-72
2021/03/16 05:20:22;;;;;;;13.52;3.22;;;6.30;69.80;;;;;;5026180;28;20387;-72
2021/03/16 05:22:49;;;;;;;13.70;3.00;;;6.30;69.90;;;;;;5027658;28;20763;-70
2021/03/16 05:25:15;;;;;;;18.77;3.37;;;6.30;69.80;;;;;;5021757;28;20403;-71
2021/03/16 05:27:40;;;;;;;16.55;3.10;;;6.20;70.40;;;;;;5014722;28;20413;-71
2021/03/16 05:30:07;;;;;;;21.40;4.33;;;6.20;70.90;;;;;;5016502;28;20393;-72
2021/03/16 05:32:33;;;;;;;18.75;3.53;;;6.20;71.70;;;;;;5015546;28;20420;-72
2021/03/16 05:34:59;;;;;;;14.73;3.45;;;6.20;71.40;;;;;;5016209;28;20392;-71
2021/03/16 05:37:24;;;;;;;20.80;3.67;;;6.10;72.00;;;;;;5016915;28;20400;-71
2021/03/16 05:39:50;;;;;;;26.57;4.83;;;6.10;73.70;;;;;;5014319;28;20384;-71
2021/03/16 05:42:17;;;;;;;16.87;3.63;;;6.10;75.00;;;;;;5012853;28;20423;-73
2021/03/16 05:44:45;;;;;;;22.70;5.10;;;6.10;75.60;;;;;;5012966;28;20470;-72
2021/03/16 05:47:13;;;;;;;20.33;4.68;;;6.10;77.10;;;;;;5024399;28;20415;-72
2021/03/16 05:49:40;;;;;;;23.33;4.82;;;6.10;77.20;;;;;;5036934;28;20395;-72
2021/03/16 05:52:09;;;;;;;20.15;4.50;;;6.10;78.10;;;;;;5038171;28;20379;-72
2021/03/16 05:54:35;;;;;;;18.33;4.07;;;6.10;78.70;;;;;;5037691;28;20482;-72
2021/03/16 05:57:01;;;;;;;18.05;4.97;;;6.10;79.90;;;;;;5038534;28;20473;-71
2021/03/16 05:59:27;;;;;;;18.63;4.60;;;6.10;80.60;;;;;;5035130;28;20882;-72
2021/03/16 06:01:52;;;;;;;23.00;5.65;;;6.00;80.60;;;;;;5021900;28;20415;-72
2021/03/16 06:04:18;;;;;;;24.70;4.30;;;6.10;81.70;;;;;;5014663;28;20393;-72
2021/03/16 06:06:44;;;;;;;17.57;4.53;;;6.10;81.50;;;;;;5013435;28;20409;-72
2021/03/16 06:09:09;;;;;;;22.63;4.40;;;6.10;81.90;;;;;;5014899;28;20393;-72
2021/03/16 06:11:35;;;;;;;28.95;4.18;;;6.10;82.00;;;;;;5015294;28;20434;-72
2021/03/16 06:14:00;;;;;;;28.48;5.03;;;6.10;80.90;;;;;;5014510;28;20392;-72
2021/03/16 06:16:26;;;;;;;23.45;4.78;;;6.10;81.70;;;;;;5014257;28;20392;-71
2021/03/16 06:18:52;;;;;;;24.23;4.90;;;6.10;82.00;;;;;;5012885;28;20385;-72
2021/03/16 06:21:20;;;;;;;22.27;5.13;;;6.20;81.80;;;;;;5013895;28;20432;-71
2021/03/16 06:23:57;;;;;;;19.95;5.00;;;6.30;78.70;;;;;;5013358;28;20766;-72
2021/03/16 06:26:32;;;;;;;14.45;3.47;;;6.30;77.50;;;;;;4995440;28;20409;-73
2021/03/16 06:29:06;;;;;;;17.80;3.65;;;6.20;76.20;;;;;;5013982;28;20728;-71
2021/03/16 06:31:32;;;;;;;16.30;4.10;;;6.20;80.60;;;;;;5013433;28;20452;-72
2021/03/16 06:33:57;;;;;;;15.13;3.90;;;6.20;82.90;;;;;;4995580;28;20405;-71
2021/03/16 06:36:28;;;;;;;19.58;5.00;;;6.10;83.00;;;;;;5012353;28;20391;-72
2021/03/16 06:38:54;;;;;;;20.52;5.03;;;6.20;84.00;;;;;;5011203;28;20400;-71
2021/03/16 06:41:21;;;;;;;17.90;4.32;;;6.20;82.90;;;;;;5011273;28;20384;-72
2021/03/16 06:44:01;;;;;;;15.13;4.53;;;6.20;80.10;;;;;;5011871;28;20488;-72
2021/03/16 06:46:35;;;;;;;28.08;5.20;;;6.20;80.40;;;;;;5030143;28;20463;-72
2021/03/16 06:49:10;;;;;;;25.15;4.70;;;6.30;79.80;;;;;;5034643;28;20375;-71
2021/03/16 06:51:36;;;;;;;22.70;4.53;;;6.30;79.00;;;;;;5035895;28;20449;-71
2021/03/16 06:54:16;;;;;;;15.57;3.70;;;6.40;77.60;;;;;;5035956;28;20391;-72
2021/03/16 06:56:50;;;;;;;19.48;4.30;;;6.40;75.60;;;;;;5034824;28;20383;-72
2021/03/16 06:59:21;;;;;;;15.73;3.75;;;6.50;77.50;;;;;;5025336;28;20424;-72
2021/03/16 07:01:47;;;;;;;17.80;4.10;;;6.50;74.60;;;;;;5029611;28;20417;-71
2021/03/16 07:04:21;;;;;;;18.65;4.20;;;6.50;73.70;;;;;;5035584;28;20379;-71
2021/03/16 07:06:47;;;;;;;22.17;4.47;;;6.50;72.70;;;;;;5033786;28;20410;-70
2021/03/16 07:09:15;;;;;;;22.05;3.90;;;6.50;71.80;;;;;;5015429;28;20482;-70
2021/03/16 07:11:46;;;;;;;22.45;4.55;;;6.60;71.50;;;;;;5033444;28;20383;-71
2021/03/16 07:14:13;;;;;;;18.35;4.32;;;6.70;72.40;;;;;;5021490;28;20407;-70
2021/03/16 07:16:39;;;;;;;15.20;4.45;;;6.70;70.90;;;;;;5014171;28;20401;-70
2021/03/16 07:19:06;;;;;;;16.95;4.15;;;6.80;69.40;;;;;;5013577;28;20408;-74
2021/03/16 07:21:55;;;;;;;21.58;4.60;;;6.80;68.70;;;;;;5012464;28;20767;-72
2021/03/16 07:24:27;;;;;;;20.45;4.13;;;7.10;80.70;;;;;;5011705;28;20480;-72
2021/03/16 07:26:55;;;;;;;18.83;4.60;;;7.20;67.40;;;;;;5010731;28;20420;-73
2021/03/16 07:29:21;;;;;;;23.75;5.38;;;7.30;67.20;;;;;;5029525;28;20391;-71
2021/03/16 07:31:49;;;;;;;18.50;4.50;;;7.20;66.80;;;;;;5015946;28;20458;-72
2021/03/16 07:34:19;;;;;;;19.77;5.00;;;7.30;65.10;;;;;;5011117;28;20407;-73
2021/03/16 07:36:48;;;;;;;20.52;4.85;;;7.30;66.20;;;;;;5014817;28;20716;-72
2021/03/16 07:39:20;;;;;;;13.82;4.30;;;7.30;65.90;;;;;;5016661;28;20386;-72
2021/03/16 07:41:47;;;;;;;17.63;4.40;;;7.40;62.20;;;;;;5015763;28;20392;-72
2021/03/16 07:44:14;;;;;;;18.63;4.93;;;7.40;65.80;;;;;;5016147;28;20439;-71
2021/03/16 07:46:45;;;;;;;23.83;4.50;;;7.40;66.30;;;;;;5014588;28;20436;-73
2021/03/16 07:49:12;;;;;;;14.65;4.10;;;7.40;65.50;;;;;;5013470;28;20789;-74
2021/03/16 07:51:42;;;;;;;28.33;4.38;;;7.40;66.00;;;;;;5010860;28;20384;-70
2021/03/16 07:54:08;;;;;;;26.60;4.30;;;7.30;65.60;;;;;;5010775;28;20380;-72
2021/03/16 07:56:35;;;;;;;23.57;5.37;;;7.30;65.10;;;;;;5010230;28;20780;-70
2021/03/16 07:59:03;;;;;;;18.23;4.00;;;7.30;64.50;;;;;;5010480;28;20459;-71
2021/03/16 08:01:29;;;;;;;28.00;6.45;;;7.30;66.00;;;;;;5010393;28;20396;-75
2021/03/16 08:04:08;;;;;;;27.60;5.65;;;7.40;67.90;;;;;;5010320;28;20427;-73
2021/03/16 08:06:36;;;;;;;17.65;4.40;;;7.50;66.70;;;;;;5010575;28;20822;-73
2021/03/16 08:09:06;;;;;;;24.95;4.90;;;7.70;59.40;;;;;;5010671;28;20384;-73
2021/03/16 08:11:42;;;;;;;16.97;4.23;;;7.60;60.90;;;;;;5017251;28;20387;-72
2021/03/16 08:14:08;;;;;;;17.75;4.55;;;7.30;62.80;;;;;;5022213;28;20439;-72
2021/03/16 08:16:43;;;;;;;12.73;4.10;;;7.20;68.30;;;;;;5010080;28;20447;-72
2021/03/16 08:19:16;;;;;;;11.40;3.80;;;7.00;65.70;;;;;;5010436;28;20427;-72
2021/03/16 08:21:43;;;;;;;12.93;4.57;;;6.90;69.10;;;;;;5010392;28;20401;-72
2021/03/16 08:24:11;;;;;;;16.70;5.93;;;6.70;67.60;;;;;;5010151;28;20392;-72
2021/03/16 08:26:48;;;;;;;12.20;5.10;;;6.60;73.90;;;;;;5010639;28;20426;-72
2021/03/16 08:29:14;;;;;;;14.07;4.63;;;6.90;70.80;;;;;;5014417;28;20483;-72
2021/03/16 08:31:40;;;;;;;13.40;5.45;;;7.00;68.70;;;;;;5025503;28;20505;-71
2021/03/16 08:34:09;;;;;;;17.23;6.82;;;7.10;67.40;;;;;;5033884;28;20387;-73
2021/03/16 08:36:39;;;;;;;14.80;5.57;;;7.10;68.80;;;;;;5033141;28;20804;-72
2021/03/16 08:39:05;;;;;;;18.00;7.17;;;7.30;68.60;;;;;;4994588;28;20386;-72
2021/03/16 08:41:31;;;;;;;20.63;7.40;;;7.50;65.00;;;;;;5007190;28;20423;-73
2021/03/16 08:43:56;;;;;;;25.15;7.25;;;7.70;67.60;;;;;;5018902;28;20902;-72
2021/03/16 08:46:34;;;;;;;18.65;7.78;;;8.00;64.80;;;;;;5023437;28;20963;-72
2021/03/16 08:48:59;;;;;;;21.67;8.15;;;8.20;59.70;;;;;;5033045;28;20383;-72
2021/03/16 08:51:27;;;;;;;20.05;7.80;;;8.60;58.60;;;;;;5025970;28;20950;-72
2021/03/16 08:53:53;;;;;;;24.40;7.90;;;8.90;55.80;;;;;;5014916;28;20384;-72
2021/03/16 08:56:23;;;;;;;26.05;7.80;;;9.20;52.10;;;;;;5019724;28;20397;-71
2021/03/16 08:58:55;;;;;;;22.90;7.93;;;9.20;53.20;;;;;;5023776;28;20809;-73
2021/03/16 09:01:26;;;;;;;18.40;6.93;;;9.10;49.90;;;;;;5023683;28;20388;-74
2021/03/16 09:03:52;;;;;;;26.00;6.35;;;9.00;52.50;;;;;;5020672;28;20392;-72
2021/03/16 09:06:19;;;;;;;16.40;5.75;;;8.80;50.80;;;;;;5019747;28;20413;-72
2021/03/16 09:08:52;;;;;;;15.85;5.85;;;8.60;52.80;;;;;;5013594;28;20389;-72
2021/03/16 09:11:32;;;;;;;18.80;5.05;;;8.50;54.80;;;;;;5011467;28;20460;-72
2021/03/16 09:14:08;;;;;;;19.65;5.70;;;8.20;54.10;;;;;;5013606;28;20400;-73
2021/03/16 09:16:33;;;;;;;17.45;4.20;;;8.00;57.40;;;;;;5012911;28;20490;-73
2021/03/16 09:18:59;;;;;;;20.10;5.10;;;7.90;55.40;;;;;;5020823;28;20489;-72
2021/03/16 09:21:25;;;;;;;14.67;4.17;;;7.90;56.00;;;;;;5014963;28;20447;-74
2021/03/16 09:23:51;;;;;;;20.92;4.00;;;7.80;57.90;;;;;;5013303;28;20388;-73
2021/03/16 09:26:26;;;;;;;11.93;3.50;;;7.90;56.80;;;;;;5012770;28;20508;-72
2021/03/16 09:28:52;;;;;;;13.07;3.28;;;7.90;55.50;;;;;;5012492;28;20404;-70
2021/03/16 09:31:21;;;;;;;15.32;4.10;;;7.90;51.70;;;;;;5013878;28;20491;-72
2021/03/16 09:33:47;;;;;;;14.13;3.30;;;7.90;51.90;;;;;;5012558;28;20841;-72
2021/03/16 09:36:12;;;;;;;12.07;3.40;;;7.80;52.20;;;;;;5014815;28;20446;-72
2021/03/16 09:38:38;;;;;;;6.67;2.10;;;8.10;48.70;;;;;;5015313;28;20400;-72
2021/03/16 09:41:09;;;;;;;16.27;2.78;;;7.80;48.00;;;;;;5015096;28;20407;-73
2021/03/16 09:43:37;;;;;;;8.20;2.80;;;7.70;51.70;;;;;;5014343;28;20441;-72
2021/03/16 09:46:05;;;;;;;13.48;3.95;;;7.80;53.70;;;;;;5014100;28;20412;-71
2021/03/16 09:48:32;;;;;;;16.75;4.72;;;8.00;54.60;;;;;;5014010;28;20747;-74
2021/03/16 09:50:59;;;;;;;17.10;4.07;;;8.30;52.80;;;;;;5014784;28;20417;-73
2021/03/16 09:53:25;;;;;;;16.17;4.50;;;8.40;49.60;;;;;;5015103;28;20393;-74
2021/03/16 09:56:01;;;;;;;14.70;5.47;;;8.50;52.70;;;;;;5015917;28;20396;-74
2021/03/16 09:58:28;;;;;;;14.13;4.10;;;8.60;49.90;;;;;;5013440;28;20393;-71
2021/03/16 10:00:54;;;;;;;16.25;4.00;;;8.60;49.00;;;;;;5013009;28;20399;-74
2021/03/16 10:03:21;;;;;;;17.15;4.28;;;8.50;48.70;;;;;;5012304;28;20381;-73
2021/03/16 10:05:48;;;;;;;14.48;3.10;;;8.50;46.20;;;;;;5014396;28;20393;-73
2021/03/16 10:08:24;;;;;;;14.63;2.30;;;8.40;44.50;;;;;;5012346;28;20843;-74
2021/03/16 10:10:50;;;;;;;15.55;2.47;;;8.00;45.80;;;;;;5027267;28;20485;-73
2021/03/16 10:13:15;;;;;;;8.88;2.10;;;7.60;58.40;;;;;;5027240;28;20475;-73
2021/03/16 10:15:44;;;;;;;6.80;2.40;;;7.00;79.90;;;;;;5026753;28;20471;-73
2021/03/16 10:18:12;;;;;;;4.03;1.87;;;6.50;88.90;;;;;;5020127;28;20428;-72
2021/03/16 10:20:39;;;;;;;5.38;1.30;;;6.20;94.30;;;;;;5012228;28;20809;-73
2021/03/16 10:23:16;;;;;;;2.08;1.20;;;6.10;94.60;;;;;;5023271;28;20387;-75
2021/03/16 10:25:42;;;;;;;9.77;2.40;;;6.00;97.40;;;;;;5032635;28;20892;-75
2021/03/16 10:28:09;;;;;;;7.20;2.00;;;6.10;98.20;;;;;;5011817;28;20405;-73
2021/03/16 10:30:44;;;;;;;8.60;2.40;;;6.10;96.40;;;;;;5014124;28;20754;-72
2021/03/16 10:33:11;;;;;;;4.70;1.40;;;6.20;96.50;;;;;;5011876;28;20962;-72
2021/03/16 10:35:38;;;;;;;6.30;1.90;;;6.50;95.70;;;;;;5011846;28;20500;-72
2021/03/16 10:38:07;;;;;;;5.13;1.60;;;6.80;95.20;;;;;;5011600;28;20395;-73
2021/03/16 10:40:34;;;;;;;6.97;2.40;;;7.10;86.80;;;;;;5011603;28;20393;-72
2021/03/16 10:43:00;;;;;;;5.32;1.70;;;7.40;83.40;;;;;;5011891;28;20432;-73
2021/03/16 10:45:26;;;;;;;8.00;2.03;;;7.90;79.40;;;;;;5011326;28;20400;-72
2021/03/16 10:47:53;;;;;;;7.70;2.00;;;8.50;64.80;;;;;;5011766;28;20504;-73
2021/03/16 10:50:19;;;;;;;7.72;2.17;;;8.40;61.90;;;;;;5011135;28;20388;-71
2021/03/16 10:52:45;;;;;;;8.32;2.70;;;8.20;62.50;;;;;;5011220;28;20392;-72
2021/03/16 10:55:11;;;;;;;11.90;2.90;;;8.20;64.20;;;;;;5011802;28;20396;-70
2021/03/16 10:57:37;;;;;;;8.75;2.92;;;8.30;63.00;;;;;;5011365;28;20393;-72
2021/03/16 11:00:22;;;;;;;10.30;3.67;;;8.40;59.90;;;;;;5031792;28;20395;-72
2021/03/16 11:02:48;;;;;;;11.65;3.28;;;8.60;59.20;;;;;;5023245;28;20431;-73
2021/03/16 11:05:14;;;;;;;13.60;3.33;;;9.00;55.60;;;;;;5011373;28;20839;-72
2021/03/16 11:07:39;;;;;;;18.08;4.30;;;9.10;50.00;;;;;;5011066;28;20400;-73
2021/03/16 11:10:05;;;;;;;17.17;3.70;;;9.20;49.70;;;;;;5010895;28;20929;-71
2021/03/16 11:12:32;;;;;;;18.25;3.80;;;8.90;48.00;;;;;;5010880;28;20724;-72
2021/03/16 11:14:57;;;;;;;21.92;3.72;;;8.70;52.20;;;;;;5012551;28;20399;-72
2021/03/16 11:17:23;;;;;;;9.57;3.42;;;8.90;58.40;;;;;;5031097;28;20379;-73
2021/03/16 11:19:50;;;;;;;15.05;4.88;;;8.90;58.90;;;;;;5024045;28;20400;-72
2021/03/16 11:22:16;;;;;;;15.30;3.17;;;8.50;55.60;;;;;;5013492;28;20890;-71
2021/03/16 11:24:42;;;;;;;8.77;3.13;;;8.10;55.00;;;;;;5010729;28;20495;-72
2021/03/16 11:27:07;;;;;;;9.03;4.50;;;7.70;55.00;;;;;;5010471;28;20404;-73
2021/03/16 11:29:33;;;;;;;12.43;4.73;;;7.40;63.50;;;;;;5010035;28;20459;-73
2021/03/16 11:31:58;;;;;;;13.33;4.90;;;7.50;68.30;;;;;;5010992;28;20380;-72
2021/03/16 11:34:24;;;;;;;8.20;4.20;;;7.30;68.90;;;;;;5010780;28;20475;-74
2021/03/16 11:36:49;;;;;;;7.57;3.90;;;7.10;72.20;;;;;;5016658;28;20395;-73
2021/03/16 11:39:15;;;;;;;8.50;3.80;;;7.00;74.80;;;;;;5030268;28;20429;-72
2021/03/16 11:41:40;;;;;;;5.93;3.30;;;7.00;82.80;;;;;;5030837;28;20387;-72
2021/03/16 11:44:06;;;;;;;12.97;3.70;;;7.40;76.40;;;;;;5032677;28;20391;-72
2021/03/16 11:46:31;;;;;;;15.83;4.30;;;8.00;75.00;;;;;;5031830;28;20464;-71
2021/03/16 11:48:57;;;;;;;10.17;3.43;;;8.40;60.50;;;;;;5014881;28;20400;-72
2021/03/16 11:51:23;;;;;;;10.77;3.40;;;8.40;58.70;;;;;;5018097;28;20428;-75
2021/03/16 11:53:48;;;;;;;5.18;2.50;;;8.50;62.00;;;;;;5031572;28;20473;-73
2021/03/16 11:56:14;;;;;;;6.97;2.80;;;8.80;59.40;;;;;;5031202;28;20380;-73
2021/03/16 11:58:39;;;;;;;12.45;3.20;;;8.90;61.50;;;;;;5031041;28;20525;-73
2021/03/16 12:01:05;;;;;;;10.68;2.97;;;9.20;63.20;;;;;;5031504;28;20931;-74
2021/03/16 12:03:31;;;;;;;9.70;2.83;;;9.70;53.20;;;;;;5032132;28;20383;-74
2021/03/16 12:05:56;;;;;;;12.05;3.42;;;9.90;54.30;;;;;;5020985;28;20392;-72
2021/03/16 12:08:22;;;;;;;11.38;4.20;;;10.40;45.20;;;;;;5011372;28;20472;-73
2021/03/16 12:10:48;;;;;;;10.37;4.90;;;10.70;40.80;;;;;;5012719;28;20385;-74
2021/03/16 12:13:14;;;;;;;10.27;4.43;;;10.80;39.30;;;;;;5026347;28;20486;-75
2021/03/16 12:15:40;;;;;;;12.02;5.50;;;10.40;41.60;;;;;;5031925;28;20411;-72
2021/03/16 12:18:05;;;;;;;17.75;5.60;;;10.60;39.90;;;;;;5031599;28;20848;-74
2021/03/16 12:20:31;;;;;;;20.45;5.50;;;11.00;34.70;;;;;;5020862;28;20503;-72
2021/03/16 12:22:57;;;;;;;9.90;5.07;;;11.20;38.40;;;;;;5027317;28;20422;-73
2021/03/16 12:25:23;;;;;;;15.57;5.38;;;10.90;40.30;;;;;;5034250;28;20383;-72
2021/03/16 12:27:49;;;;;;;17.95;6.32;;;10.90;35.40;;;;;;5016332;28;20416;-73
2021/03/16 12:30:15;;;;;;;10.82;5.55;;;10.80;39.50;;;;;;5010264;28;20894;-73
2021/03/16 12:32:41;;;;;;;14.27;5.45;;;10.50;41.80;;;;;;5009845;28;20866;-73
2021/03/16 12:35:12;;;;;;;13.03;3.77;;;10.90;38.60;;;;;;5016904;28;20407;-73
2021/03/16 12:37:38;;;;;;;14.15;4.70;;;10.50;36.80;;;;;;5021908;28;20436;-72
2021/03/16 12:40:05;;;;;;;10.50;3.85;;;10.40;39.60;;;;;;5009494;28;20428;-73
2021/03/16 12:42:32;;;;;;;12.80;4.15;;;10.50;37.90;;;;;;5026424;28;20406;-72
2021/03/16 12:44:57;;;;;;;14.07;4.30;;;10.10;38.90;;;;;;5013473;28;20838;-73
2021/03/16 12:47:24;;;;;;;11.10;4.50;;;10.30;45.60;;;;;;5008628;28;20416;-73
2021/03/16 12:49:50;;;;;;;8.65;4.10;;;10.90;38.30;;;;;;5018666;28;20391;-74